Hopewell, New York
Current Conditions -  °F | °C
As of 7:21 PM on Wednesday 26 Nov 2014 (Local Time) from KPOU Reporting Station
Light Snow Light Snow  
Wind Chill: 25°   Ceiling: 800
Heat Index: 34°   Visibility: 2mi
Dew Point: 31°   Wind: 13mph
Humidity: 89%   Direction: 360°N
Pressure: 29.85"   Gusts: NA
Location:  41.562°N, 73.7865°W
Report Text: KPOU 270021Z AUTO 36011KT 2SM -SN BR OVC008 01/M01 A2985 RMK AO2 CIG 006V012 P0000 T00111006 TSNO
Loading
Personal Weather Stations






























Interactive Weather Map New forecast layout! Learn more

10-Day Weather Forecast

Advertisements
Track Severe Weather on mobile